createdAt,value
2022-12-24T00:02:57.836Z,6.20
2022-12-24T00:05:46.264Z,5.80
2022-12-24T00:08:34.859Z,5.80
2022-12-24T00:11:22.814Z,5.50
2022-12-24T00:14:10.639Z,5.00
2022-12-24T00:16:58.422Z,5.40
2022-12-24T00:19:46.335Z,5.10
2022-12-24T00:22:34.033Z,6.10
2022-12-24T00:25:22.063Z,5.80
2022-12-24T00:28:10.339Z,6.20
2022-12-24T00:30:58.623Z,5.30
2022-12-24T00:33:47.358Z,5.30
2022-12-24T00:36:35.297Z,5.70
2022-12-24T00:39:23.255Z,4.40
2022-12-24T00:42:11.418Z,4.80
2022-12-24T00:44:59.318Z,5.50
2022-12-24T00:47:47.110Z,6.10
2022-12-24T00:50:35.282Z,5.00
2022-12-24T00:53:23.292Z,5.20
2022-12-24T00:56:11.403Z,5.40
2022-12-24T00:58:59.635Z,5.20
2022-12-24T01:01:47.749Z,5.40
2022-12-24T01:04:53.986Z,4.10
2022-12-24T01:07:44.713Z,3.90
2022-12-24T01:10:32.780Z,4.20
2022-12-24T01:13:20.802Z,4.10
2022-12-24T01:16:20.754Z,4.90
2022-12-24T01:19:09.273Z,6.00
2022-12-24T01:21:56.975Z,6.50
2022-12-24T01:24:45.305Z,5.60
2022-12-24T01:27:33.309Z,5.90
2022-12-24T01:30:21.124Z,6.00
2022-12-24T01:33:08.917Z,6.60
2022-12-24T01:35:56.544Z,6.40
2022-12-24T01:38:44.279Z,6.70
2022-12-24T01:41:52.557Z,7.00
2022-12-24T01:44:43.984Z,6.60
2022-12-24T01:47:31.946Z,6.60
2022-12-24T01:50:20.180Z,9.20
2022-12-24T01:53:10.186Z,11.80
2022-12-24T01:55:58.961Z,9.70
2022-12-24T01:58:52.505Z,9.10
2022-12-24T02:01:40.698Z,8.70
2022-12-24T02:04:43.044Z,7.00
2022-12-24T02:07:31.700Z,6.40
2022-12-24T02:10:19.730Z,5.50
2022-12-24T02:13:08.656Z,4.60
2022-12-24T02:16:34.474Z,5.30
2022-12-24T02:19:56.495Z,5.30
2022-12-24T02:23:19.943Z,3.80
2022-12-24T02:26:26.084Z,4.20
2022-12-24T02:30:00.294Z,3.70
2022-12-24T02:33:30.867Z,4.20
2022-12-24T02:36:28.516Z,4.60
2022-12-24T02:39:42.933Z,4.10
2022-12-24T02:42:39.790Z,3.70
2022-12-24T02:45:34.791Z,3.90
2022-12-24T02:48:25.470Z,3.80
2022-12-24T02:51:14.115Z,3.60
2022-12-24T02:54:02.545Z,3.80
2022-12-24T02:57:17.886Z,3.80
2022-12-24T03:00:15.890Z,3.30
2022-12-24T03:03:45.787Z,3.50
2022-12-24T03:06:59.868Z,3.10
2022-12-24T03:10:19.885Z,2.90
2022-12-24T03:13:18.093Z,3.00
2022-12-24T03:16:17.509Z,3.30
2022-12-24T03:19:05.988Z,2.90
2022-12-24T03:21:58.285Z,3.00
2022-12-24T03:24:46.655Z,2.40
2022-12-24T03:27:36.001Z,2.40
2022-12-24T03:30:23.901Z,2.30
2022-12-24T03:33:13.501Z,2.20
2022-12-24T03:36:01.881Z,2.90
2022-12-24T03:38:50.199Z,2.30
2022-12-24T03:41:39.235Z,2.30
2022-12-24T03:44:27.303Z,2.30
2022-12-24T03:47:15.150Z,3.50
2022-12-24T03:50:03.551Z,5.00
2022-12-24T03:52:51.176Z,5.90
2022-12-24T03:55:39.911Z,5.10
2022-12-24T03:58:28.075Z,6.00
2022-12-24T04:01:17.134Z,6.90
2022-12-24T04:04:05.188Z,6.70
2022-12-24T04:06:52.932Z,6.10
2022-12-24T04:09:41.549Z,4.80
2022-12-24T04:12:29.692Z,4.60
2022-12-24T04:15:17.889Z,4.80
2022-12-24T04:18:05.851Z,4.10
2022-12-24T04:20:53.723Z,4.00
2022-12-24T04:23:43.021Z,3.50
2022-12-24T04:26:30.786Z,3.90
2022-12-24T04:29:18.804Z,3.70
2022-12-24T04:32:06.735Z,3.40
2022-12-24T04:34:55.996Z,3.60
2022-12-24T04:37:44.346Z,3.00
2022-12-24T04:40:32.424Z,3.30
2022-12-24T04:43:21.058Z,3.30
2022-12-24T04:46:18.120Z,3.80
2022-12-24T04:49:06.380Z,4.10
2022-12-24T04:51:54.620Z,4.80
2022-12-24T04:54:42.592Z,4.20
2022-12-24T04:57:35.805Z,3.70
2022-12-24T05:00:23.963Z,3.50
2022-12-24T05:03:11.834Z,3.80
2022-12-24T05:06:05.789Z,4.00
2022-12-24T05:08:56.132Z,3.70
2022-12-24T05:11:45.181Z,4.10
2022-12-24T05:14:33.536Z,3.90
2022-12-24T05:17:22.352Z,3.90
2022-12-24T05:20:10.457Z,3.60
2022-12-24T05:23:17.019Z,3.50
2022-12-24T05:26:24.529Z,3.90
2022-12-24T05:29:15.544Z,4.00
2022-12-24T05:32:03.729Z,4.00
2022-12-24T05:34:51.638Z,3.60
2022-12-24T05:37:39.935Z,3.20
2022-12-24T05:40:28.033Z,3.70
2022-12-24T05:43:16.132Z,3.20
2022-12-24T05:46:12.945Z,3.30
2022-12-24T05:49:01.477Z,3.50
2022-12-24T05:51:49.398Z,3.50
2022-12-24T05:54:37.257Z,4.20
2022-12-24T05:57:25.353Z,6.70
2022-12-24T06:00:13.810Z,5.10
2022-12-24T06:03:02.056Z,5.20
2022-12-24T06:06:21.290Z,5.90
2022-12-24T06:09:09.173Z,5.00
2022-12-24T06:11:57.464Z,4.70
2022-12-24T06:14:45.563Z,4.60
2022-12-24T06:17:33.703Z,6.00
2022-12-24T06:20:23.378Z,5.00
2022-12-24T06:23:11.778Z,5.30
2022-12-24T06:26:01.197Z,5.80
2022-12-24T06:28:50.714Z,5.10
2022-12-24T06:31:38.276Z,5.20
2022-12-24T06:34:25.958Z,5.00
2022-12-24T06:37:18.520Z,5.10
2022-12-24T06:40:07.252Z,5.10
2022-12-24T06:42:55.591Z,5.70
2022-12-24T06:45:48.074Z,5.30
2022-12-24T06:48:35.632Z,6.00
2022-12-24T06:51:23.542Z,5.50
2022-12-24T06:54:11.306Z,5.50
2022-12-24T06:56:59.308Z,5.40
2022-12-24T06:59:47.361Z,5.80
2022-12-24T07:02:35.298Z,5.50
2022-12-24T07:05:23.319Z,5.50
2022-12-24T07:08:11.081Z,4.70
2022-12-24T07:11:00.272Z,4.60
2022-12-24T07:13:49.379Z,4.30
2022-12-24T07:16:37.281Z,4.10
2022-12-24T07:19:25.439Z,4.80
2022-12-24T07:22:15.766Z,4.70
2022-12-24T07:25:04.349Z,4.70
2022-12-24T07:27:52.529Z,4.80
2022-12-24T07:30:40.578Z,5.20
2022-12-24T07:33:29.168Z,3.90
2022-12-24T07:36:22.616Z,3.50
2022-12-24T07:39:10.593Z,3.50
2022-12-24T07:41:58.495Z,3.10
2022-12-24T07:44:46.498Z,3.60
2022-12-24T07:47:35.574Z,3.80
2022-12-24T07:50:23.767Z,5.20
2022-12-24T07:53:11.846Z,5.00
2022-12-24T07:55:59.845Z,6.00
2022-12-24T07:58:48.044Z,7.50
2022-12-24T08:01:36.037Z,7.60
2022-12-24T08:04:24.292Z,6.30
2022-12-24T08:07:12.210Z,8.10
2022-12-24T08:10:00.174Z,11.90
2022-12-24T08:12:48.474Z,8.30
2022-12-24T08:15:36.738Z,9.60
2022-12-24T08:18:24.979Z,9.20
2022-12-24T08:21:12.916Z,10.50
2022-12-24T08:24:00.981Z,8.50
2022-12-24T08:26:48.866Z,7.60
2022-12-24T08:29:36.558Z,7.10
2022-12-24T08:32:24.440Z,7.60
2022-12-24T08:35:12.473Z,9.40
2022-12-24T08:38:00.751Z,17.30
2022-12-24T08:40:50.161Z,22.20
2022-12-24T08:43:38.344Z,19.40
2022-12-24T08:46:26.719Z,16.80
2022-12-24T08:49:14.838Z,15.60
2022-12-24T08:52:02.981Z,12.40
2022-12-24T08:54:50.690Z,10.70
2022-12-24T08:57:38.581Z,12.50
2022-12-24T09:00:26.982Z,13.90
2022-12-24T09:03:19.526Z,13.10
2022-12-24T09:06:11.943Z,13.30
2022-12-24T09:08:59.996Z,15.20
2022-12-24T09:11:48.030Z,14.40
2022-12-24T09:14:36.322Z,15.50
2022-12-24T09:17:24.331Z,15.30
2022-12-24T09:20:12.550Z,16.00
2022-12-24T09:23:00.433Z,13.60
2022-12-24T09:25:48.527Z,12.70
2022-12-24T09:28:36.591Z,11.60
2022-12-24T09:31:24.845Z,10.30
2022-12-24T09:34:12.685Z,9.00
2022-12-24T09:37:02.484Z,6.40
2022-12-24T09:39:50.221Z,6.80
2022-12-24T09:42:55.024Z,5.90
2022-12-24T09:46:13.573Z,4.40
2022-12-24T09:49:08.820Z,4.40
2022-12-24T09:52:05.274Z,2.50
2022-12-24T09:55:23.877Z,1.80
2022-12-24T09:58:37.690Z,1.40
2022-12-24T10:01:26.236Z,2.50
2022-12-24T10:04:19.018Z,2.50
2022-12-24T10:07:58.543Z,2.30
2022-12-24T10:10:55.568Z,1.50
2022-12-24T10:14:23.847Z,1.00
2022-12-24T10:18:22.448Z,1.10
2022-12-24T10:21:23.293Z,1.60
2022-12-24T10:24:50.923Z,2.60
2022-12-24T10:27:42.495Z,2.30
2022-12-24T10:30:30.822Z,1.10
2022-12-24T10:33:40.152Z,1.00
2022-12-24T10:36:31.674Z,0.90
2022-12-24T10:39:24.630Z,1.10
2022-12-24T10:42:15.540Z,1.30
2022-12-24T10:45:07.990Z,1.00
2022-12-24T10:48:01.674Z,1.20
2022-12-24T10:51:13.400Z,1.20
2022-12-24T10:54:28.079Z,1.20
2022-12-24T10:57:27.086Z,0.90
2022-12-24T11:00:28.582Z,1.30
2022-12-24T11:03:30.818Z,1.20
2022-12-24T11:06:21.276Z,1.20
2022-12-24T11:09:25.880Z,1.50
2022-12-24T11:12:25.916Z,1.10
2022-12-24T11:15:22.516Z,1.20
2022-12-24T11:18:15.933Z,1.30
2022-12-24T11:21:06.223Z,1.50
2022-12-24T11:24:26.612Z,1.20
2022-12-24T11:27:33.809Z,1.10
2022-12-24T11:30:31.903Z,1.10
2022-12-24T11:33:21.647Z,1.20
2022-12-24T11:36:13.939Z,1.40
2022-12-24T11:39:01.618Z,1.60
2022-12-24T11:41:51.547Z,1.50
2022-12-24T11:44:49.519Z,1.70
2022-12-24T11:47:42.956Z,1.60
2022-12-24T11:50:35.868Z,1.40
2022-12-24T11:53:30.920Z,1.50
2022-12-24T11:56:31.375Z,1.60
2022-12-24T11:59:38.437Z,1.80
2022-12-24T12:02:35.586Z,1.60
2022-12-24T12:05:33.533Z,1.30
2022-12-24T12:08:22.957Z,1.60
2022-12-24T12:11:14.779Z,1.50
2022-12-24T12:14:04.906Z,1.60
2022-12-24T12:17:04.610Z,1.70
2022-12-24T12:20:12.614Z,1.80
2022-12-24T12:23:06.741Z,2.10
2022-12-24T12:26:21.998Z,2.20
2022-12-24T12:29:36.033Z,1.80
2022-12-24T12:32:41.569Z,2.10
2022-12-24T12:35:40.007Z,2.10
2022-12-24T12:38:32.277Z,3.00
2022-12-24T12:41:43.883Z,3.40
2022-12-24T12:45:10.320Z,3.50
2022-12-24T12:48:03.880Z,3.30
2022-12-24T12:51:13.727Z,2.90
2022-12-24T12:54:22.965Z,2.70
2022-12-24T12:57:17.187Z,3.00
2022-12-24T13:00:11.971Z,2.80
2022-12-24T13:03:30.533Z,4.10
2022-12-24T13:06:36.188Z,4.00
2022-12-24T13:10:03.548Z,4.80
2022-12-24T13:13:37.772Z,6.10
2022-12-24T13:17:29.111Z,5.70
2022-12-24T13:20:46.874Z,5.10
2022-12-24T13:23:35.393Z,4.40
2022-12-24T13:26:23.608Z,4.00
2022-12-24T13:29:57.239Z,3.30
2022-12-24T13:32:54.111Z,3.50
2022-12-24T13:36:06.200Z,4.10
2022-12-24T13:38:57.968Z,4.10
2022-12-24T13:41:52.432Z,4.20
2022-12-24T13:44:40.573Z,5.00
2022-12-24T13:47:32.592Z,4.80
2022-12-24T13:50:30.038Z,3.50
2022-12-24T13:53:40.848Z,3.60
2022-12-24T13:56:31.876Z,3.70
2022-12-24T13:59:39.057Z,3.60
2022-12-24T14:02:32.615Z,4.80
2022-12-24T14:05:44.076Z,4.50
2022-12-24T14:08:45.755Z,5.10
2022-12-24T14:11:53.705Z,5.20
2022-12-24T14:14:42.570Z,5.30
2022-12-24T14:17:31.168Z,4.40
2022-12-24T14:20:19.262Z,4.60
2022-12-24T14:23:16.399Z,5.10
2022-12-24T14:26:13.053Z,4.30
2022-12-24T14:29:08.369Z,4.40
2022-12-24T14:31:59.509Z,4.90
2022-12-24T14:34:47.696Z,5.70
2022-12-24T14:37:36.869Z,4.80
2022-12-24T14:41:05.914Z,6.00
2022-12-24T14:44:19.784Z,5.00
2022-12-24T14:47:25.929Z,4.30
2022-12-24T14:50:50.040Z,5.70
2022-12-24T14:54:11.013Z,6.00
2022-12-24T14:57:12.854Z,6.90
2022-12-24T15:00:06.385Z,6.50
2022-12-24T15:02:54.598Z,6.70
2022-12-24T15:05:43.495Z,9.60
2022-12-24T15:08:45.737Z,9.70
2022-12-24T15:11:33.776Z,8.20
2022-12-24T15:14:25.305Z,5.60
2022-12-24T15:17:13.640Z,5.90
2022-12-24T15:20:04.192Z,4.90
2022-12-24T15:22:56.268Z,5.50
2022-12-24T15:25:44.406Z,4.80
2022-12-24T15:28:38.271Z,5.00
2022-12-24T15:31:28.758Z,5.60
2022-12-24T15:34:37.715Z,7.30
2022-12-24T15:37:37.203Z,6.00
2022-12-24T15:40:26.576Z,5.60
2022-12-24T15:43:14.681Z,6.30
2022-12-24T15:46:02.969Z,7.20
2022-12-24T15:48:52.388Z,7.20
2022-12-24T15:51:40.796Z,7.60
2022-12-24T15:54:29.032Z,6.90
2022-12-24T15:57:34.248Z,6.00
2022-12-24T16:00:31.003Z,5.60
2022-12-24T16:03:23.501Z,5.20
2022-12-24T16:06:11.950Z,5.20
2022-12-24T16:08:59.628Z,5.00
2022-12-24T16:11:47.690Z,6.60
2022-12-24T16:14:35.440Z,5.80
2022-12-24T16:17:36.022Z,5.30
2022-12-24T16:20:24.018Z,6.10
2022-12-24T16:23:25.812Z,6.00
2022-12-24T16:26:14.317Z,5.60
2022-12-24T16:29:02.574Z,5.60
2022-12-24T16:31:55.753Z,7.40
2022-12-24T16:34:43.927Z,7.40
2022-12-24T16:37:32.137Z,7.10
2022-12-24T16:40:26.507Z,6.50
2022-12-24T16:43:34.521Z,5.80
2022-12-24T16:46:22.492Z,6.90
2022-12-24T16:49:19.331Z,7.20
2022-12-24T16:52:16.922Z,7.20
2022-12-24T16:55:05.470Z,6.80
2022-12-24T16:57:53.856Z,5.90
2022-12-24T17:00:44.719Z,7.10
2022-12-24T17:03:32.936Z,6.80
2022-12-24T17:06:20.927Z,6.90
2022-12-24T17:09:11.085Z,6.50
2022-12-24T17:11:58.631Z,6.40
2022-12-24T17:14:46.407Z,5.10
2022-12-24T17:17:35.019Z,7.10
2022-12-24T17:20:24.541Z,7.70
2022-12-24T17:23:12.680Z,7.90
2022-12-24T17:26:00.589Z,7.80
2022-12-24T17:28:48.462Z,8.40
2022-12-24T17:31:39.294Z,9.50
2022-12-24T17:34:27.335Z,8.20
2022-12-24T17:37:15.424Z,8.10
2022-12-24T17:40:04.205Z,7.20
2022-12-24T17:42:52.599Z,6.10
2022-12-24T17:45:42.381Z,6.60
2022-12-24T17:48:30.707Z,6.60
2022-12-24T17:51:22.265Z,5.40
2022-12-24T17:54:10.286Z,6.70
2022-12-24T17:56:58.863Z,6.50
2022-12-24T17:59:46.719Z,7.00
2022-12-24T18:02:35.128Z,5.70
2022-12-24T18:05:23.497Z,7.70
2022-12-24T18:08:11.288Z,7.60
2022-12-24T18:10:59.356Z,6.60
2022-12-24T18:13:48.974Z,5.60
2022-12-24T18:16:41.158Z,4.80
2022-12-24T18:19:29.409Z,4.30
2022-12-24T18:22:17.534Z,4.40
2022-12-24T18:25:06.745Z,5.20
2022-12-24T18:27:54.941Z,4.80
2022-12-24T18:30:42.751Z,4.40
2022-12-24T18:33:32.630Z,5.30
2022-12-24T18:36:21.259Z,4.50
2022-12-24T18:39:09.274Z,4.10
2022-12-24T18:41:57.065Z,3.70
2022-12-24T18:44:45.957Z,3.70
2022-12-24T18:47:34.437Z,3.50
2022-12-24T18:50:22.643Z,3.90
2022-12-24T18:53:11.331Z,4.90
2022-12-24T18:56:10.885Z,5.50
2022-12-24T18:59:01.962Z,4.50
2022-12-24T19:01:50.312Z,4.30
2022-12-24T19:04:38.646Z,5.00
2022-12-24T19:07:26.809Z,4.50
2022-12-24T19:10:14.982Z,4.30
2022-12-24T19:13:02.691Z,5.10
2022-12-24T19:15:51.035Z,3.90
2022-12-24T19:18:39.361Z,4.40
2022-12-24T19:21:27.339Z,4.80
2022-12-24T19:24:15.528Z,4.70
2022-12-24T19:27:03.987Z,4.30
2022-12-24T19:29:51.781Z,4.00
2022-12-24T19:32:40.072Z,4.30
2022-12-24T19:35:29.096Z,4.00
2022-12-24T19:38:17.265Z,4.00
2022-12-24T19:41:16.102Z,3.90
2022-12-24T19:44:04.003Z,4.00
2022-12-24T19:46:52.331Z,3.80
2022-12-24T19:49:40.843Z,3.20
2022-12-24T19:52:29.091Z,3.60
2022-12-24T19:55:17.098Z,3.70
2022-12-24T19:58:05.289Z,3.70
2022-12-24T20:00:54.170Z,3.70
2022-12-24T20:03:44.032Z,4.40
2022-12-24T20:06:35.127Z,5.50
2022-12-24T20:09:23.303Z,7.70
2022-12-24T20:12:11.230Z,10.30
2022-12-24T20:14:59.013Z,12.60
2022-12-24T20:17:52.140Z,10.70
2022-12-24T20:20:41.567Z,12.60
2022-12-24T20:23:30.992Z,9.30
2022-12-24T20:26:23.205Z,9.90
2022-12-24T20:29:12.853Z,9.60
2022-12-24T20:32:01.144Z,9.10
2022-12-24T20:34:49.284Z,8.30
2022-12-24T20:37:43.709Z,9.50
2022-12-24T20:40:33.781Z,8.80
2022-12-24T20:43:24.464Z,7.10
2022-12-24T20:46:12.555Z,7.50
2022-12-24T20:49:00.673Z,11.50
2022-12-24T20:51:48.655Z,11.80
2022-12-24T20:54:36.558Z,10.70
2022-12-24T20:57:27.853Z,12.20
2022-12-24T21:00:20.012Z,12.20
2022-12-24T21:03:07.966Z,13.90
2022-12-24T21:05:56.175Z,14.50
2022-12-24T21:08:54.573Z,13.40
2022-12-24T21:11:48.195Z,11.40
2022-12-24T21:14:36.535Z,11.60
2022-12-24T21:17:24.516Z,10.40
2022-12-24T21:20:13.566Z,10.50
2022-12-24T21:23:02.609Z,10.50
2022-12-24T21:26:02.008Z,10.50
2022-12-24T21:28:50.667Z,12.40
2022-12-24T21:31:38.885Z,12.20
2022-12-24T21:34:26.720Z,12.40
2022-12-24T21:37:14.796Z,12.60
2022-12-24T21:40:04.716Z,13.40
2022-12-24T21:42:52.656Z,14.20
2022-12-24T21:45:41.715Z,14.40
2022-12-24T21:48:48.660Z,14.10
2022-12-24T21:51:36.977Z,13.50
2022-12-24T21:54:28.737Z,11.70
2022-12-24T21:57:55.168Z,15.20
2022-12-24T22:00:43.449Z,13.40
2022-12-24T22:03:31.660Z,15.40
2022-12-24T22:06:38.087Z,17.00
2022-12-24T22:09:44.805Z,16.70
2022-12-24T22:12:34.251Z,15.60
2022-12-24T22:15:22.940Z,14.20
2022-12-24T22:18:11.312Z,15.80
2022-12-24T22:21:02.838Z,14.40
2022-12-24T22:23:50.823Z,12.90
2022-12-24T22:26:38.812Z,12.00
2022-12-24T22:29:26.466Z,12.20
2022-12-24T22:32:14.307Z,15.20
2022-12-24T22:35:02.378Z,13.20
2022-12-24T22:37:53.160Z,12.50
2022-12-24T22:40:45.532Z,11.80
2022-12-24T22:43:33.748Z,11.50
2022-12-24T22:46:22.134Z,12.40
2022-12-24T22:49:11.531Z,12.30
2022-12-24T22:51:59.607Z,10.40
2022-12-24T22:54:47.943Z,8.70
2022-12-24T22:57:36.270Z,12.30
2022-12-24T23:00:45.286Z,10.80
2022-12-24T23:03:33.022Z,8.70
2022-12-24T23:06:20.844Z,10.80
2022-12-24T23:09:12.252Z,12.20
2022-12-24T23:12:00.132Z,10.80
2022-12-24T23:14:57.022Z,10.60
2022-12-24T23:17:47.944Z,8.90
2022-12-24T23:20:43.229Z,9.00
2022-12-24T23:23:36.561Z,8.70
2022-12-24T23:26:25.768Z,9.50
2022-12-24T23:29:13.621Z,9.20
2022-12-24T23:32:01.349Z,8.80
2022-12-24T23:34:49.240Z,10.30
2022-12-24T23:37:37.112Z,8.90
2022-12-24T23:40:25.427Z,9.10
2022-12-24T23:43:13.504Z,8.80
2022-12-24T23:46:02.573Z,8.60
2022-12-24T23:48:55.269Z,8.60
2022-12-24T23:51:43.646Z,10.10
2022-12-24T23:54:31.698Z,10.10
2022-12-24T23:57:19.507Z,11.40
